Time;durP1;ratioP1;P1;durP2;ratioP2;P2;SDS_P1;SDS_P2;PMS_P1;PMS_P2;Temp;Humidity;BMP_temperature;BMP_pressure;BME280_temperature;BME280_humidity;BME280_pressure;Samples;Min_cycle;Max_cycle;Signal;HPM_P1;HPM_P2
2022/03/18 00:00:54;;;;;;;19.52;6.03;;;4.60;99.90;;;;;;5113076;28;20058;-63
2022/03/18 00:03:20;;;;;;;17.92;7.05;;;5.00;99.90;;;;;;5113553;28;20058;-63
2022/03/18 00:05:46;;;;;;;16.40;6.63;;;4.70;99.90;;;;;;5114837;28;20047;-63
2022/03/18 00:08:12;;;;;;;12.60;7.15;;;4.70;99.90;;;;;;5113982;28;20043;-63
2022/03/18 00:10:38;;;;;;;12.73;7.07;;;5.10;99.90;;;;;;5107499;28;20055;-63
2022/03/18 00:13:04;;;;;;;15.40;6.90;;;4.70;99.90;;;;;;5093119;28;20036;-63
2022/03/18 00:15:30;;;;;;;15.10;7.55;;;5.10;99.90;;;;;;5093468;28;20078;-63
2022/03/18 00:17:56;;;;;;;16.25;7.53;;;4.60;99.90;;;;;;5095177;28;20079;-63
2022/03/18 00:20:22;;;;;;;15.10;8.85;;;4.70;99.90;;;;;;5092917;28;20368;-63
2022/03/18 00:22:48;;;;;;;15.82;8.60;;;5.20;99.90;;;;;;5092544;28;20508;-63
2022/03/18 00:25:16;;;;;;;17.73;8.10;;;5.10;99.90;;;;;;5094060;28;20119;-63
2022/03/18 00:27:43;;;;;;;21.58;8.30;;;4.70;99.90;;;;;;5093954;28;20089;-63
2022/03/18 00:30:11;;;;;;;17.30;8.75;;;5.00;99.90;;;;;;5092225;28;20119;-63
2022/03/18 00:32:41;;;;;;;14.15;7.82;;;4.70;99.90;;;;;;5093986;28;20098;-63
2022/03/18 00:35:08;;;;;;;13.98;7.80;;;4.90;99.90;;;;;;5093048;28;20040;-63
2022/03/18 00:37:34;;;;;;;14.18;7.65;;;4.60;99.90;;;;;;5095368;28;20072;-63
2022/03/18 00:40:01;;;;;;;15.23;7.72;;;4.80;99.90;;;;;;5114223;28;20066;-63
2022/03/18 00:42:26;;;;;;;14.75;7.60;;;4.90;99.90;;;;;;5112384;28;20120;-63
2022/03/18 00:44:52;;;;;;;18.50;7.85;;;4.80;99.90;;;;;;5112570;28;20123;-63
2022/03/18 00:52:47;;;;;;;19.63;6.67;;;4.90;99.90;;;;;;5093489;28;20060;-63
2022/03/18 00:55:13;;;;;;;15.40;6.90;;;5.00;99.90;;;;;;5093321;28;20181;-63
2022/03/18 00:57:39;;;;;;;13.55;6.80;;;4.90;99.90;;;;;;5092804;28;20071;-63
2022/03/18 01:00:08;;;;;;;12.02;7.00;;;5.00;99.90;;;;;;5092235;28;20044;-63
2022/03/18 01:02:33;;;;;;;22.02;7.20;;;4.80;99.90;;;;;;5109459;28;20050;-63
2022/03/18 01:04:59;;;;;;;17.23;6.95;;;5.00;99.90;;;;;;5113021;28;20043;-63
2022/03/18 01:07:25;;;;;;;21.40;8.85;;;5.00;99.90;;;;;;5112206;28;20114;-63
2022/03/18 01:09:51;;;;;;;16.75;7.10;;;5.00;99.90;;;;;;5112129;28;20050;-63
2022/03/18 01:12:17;;;;;;;20.80;8.73;;;5.00;99.90;;;;;;5112063;28;20047;-63
2022/03/18 01:14:42;;;;;;;13.07;6.28;;;5.00;99.90;;;;;;5112213;28;20047;-63
2022/03/18 01:17:08;;;;;;;19.17;6.47;;;6.50;99.90;;;;;;5098234;28;20119;-63
2022/03/18 01:19:34;;;;;;;11.40;5.82;;;5.00;99.90;;;;;;5092040;28;20484;-63
2022/03/18 01:21:59;;;;;;;16.55;6.63;;;5.10;99.90;;;;;;5091774;28;20495;-63
2022/03/18 01:24:25;;;;;;;20.10;6.72;;;5.10;99.90;;;;;;5092201;28;20513;-63
2022/03/18 01:26:51;;;;;;;10.40;6.07;;;5.00;99.90;;;;;;5092762;28;20039;-63
2022/03/18 01:29:17;;;;;;;12.77;6.80;;;5.00;99.90;;;;;;5092898;28;20082;-63
2022/03/18 01:31:43;;;;;;;15.02;7.13;;;5.00;99.90;;;;;;5090828;28;20040;-63
2022/03/18 01:34:08;;;;;;;14.65;7.18;;;5.00;99.90;;;;;;5092766;28;20048;-63
2022/03/18 01:36:34;;;;;;;13.35;6.88;;;5.00;99.90;;;;;;5092833;28;20046;-63
2022/03/18 01:39:00;;;;;;;17.83;7.55;;;5.00;99.90;;;;;;5091892;28;20062;-63
2022/03/18 01:41:26;;;;;;;12.60;6.78;;;5.60;99.90;;;;;;5092622;28;20042;-63
2022/03/18 01:43:52;;;;;;;15.13;7.13;;;4.90;99.90;;;;;;5106489;28;20035;-63
2022/03/18 01:46:18;;;;;;;14.10;6.63;;;5.10;99.90;;;;;;5112248;28;20445;-64
2022/03/18 01:48:45;;;;;;;18.45;7.07;;;5.20;99.90;;;;;;5111940;28;20039;-63
2022/03/18 01:51:15;;;;;;;18.17;6.80;;;4.80;99.90;;;;;;5112718;28;20036;-63
2022/03/18 01:53:43;;;;;;;18.20;7.95;;;4.90;99.90;;;;;;5112069;28;20115;-63
2022/03/18 01:56:09;;;;;;;18.75;8.15;;;5.00;99.90;;;;;;5112155;28;20043;-63
2022/03/18 01:58:35;;;;;;;16.88;7.18;;;4.70;99.90;;;;;;5099365;28;20067;-63
2022/03/18 02:01:01;;;;;;;13.98;7.13;;;4.80;99.90;;;;;;5090653;28;20071;-63
2022/03/18 02:03:27;;;;;;;15.15;6.90;;;4.80;99.90;;;;;;5092273;28;20044;-63
2022/03/18 02:05:53;;;;;;;14.23;7.05;;;4.70;99.90;;;;;;5092430;28;20118;-63
2022/03/18 02:08:20;;;;;;;18.70;7.57;;;4.70;99.90;;;;;;5089870;28;20051;-63
2022/03/18 02:10:46;;;;;;;14.40;7.50;;;4.70;99.90;;;;;;5078284;28;20040;-63
2022/03/18 02:13:12;;;;;;;16.10;8.65;;;4.80;99.90;;;;;;5112727;28;20381;-63
2022/03/18 02:15:38;;;;;;;16.58;7.70;;;4.90;99.90;;;;;;5112294;28;20107;-63
2022/03/18 02:18:05;;;;;;;16.10;7.22;;;4.90;99.90;;;;;;5111516;28;20114;-63
2022/03/18 02:20:34;;;;;;;12.48;6.97;;;4.90;99.90;;;;;;5111708;28;20047;-63
2022/03/18 02:23:01;;;;;;;14.98;7.05;;;4.70;99.90;;;;;;5111323;28;20119;-63
2022/03/18 02:25:27;;;;;;;22.80;9.77;;;4.40;99.90;;;;;;5108533;28;20067;-63
2022/03/18 02:27:54;;;;;;;20.17;8.02;;;4.70;99.90;;;;;;5090231;28;20117;-63
2022/03/18 02:30:20;;;;;;;13.93;7.60;;;4.80;99.90;;;;;;5092093;28;20036;-63
2022/03/18 02:32:46;;;;;;;13.75;7.60;;;4.80;99.90;;;;;;5090955;28;20040;-63
2022/03/18 02:35:12;;;;;;;18.92;8.18;;;4.80;99.90;;;;;;5089931;28;20044;-63
2022/03/18 02:37:38;;;;;;;14.50;8.00;;;4.70;99.90;;;;;;5090923;28;20035;-63
2022/03/18 02:40:04;;;;;;;14.50;8.05;;;5.40;99.90;;;;;;5094246;28;20043;-63
2022/03/18 02:42:30;;;;;;;13.30;7.63;;;4.80;99.90;;;;;;5110324;28;20035;-63
2022/03/18 02:44:55;;;;;;;14.75;7.63;;;5.40;99.90;;;;;;5111113;28;20092;-63
2022/03/18 02:47:21;;;;;;;22.35;8.73;;;5.00;99.90;;;;;;5112344;28;20484;-63
2022/03/18 02:49:47;;;;;;;17.63;7.93;;;5.10;99.90;;;;;;5111549;28;20413;-63
2022/03/18 02:52:14;;;;;;;16.52;8.88;;;5.00;99.90;;;;;;5111846;28;20411;-63
2022/03/18 02:54:40;;;;;;;16.35;7.90;;;5.00;99.90;;;;;;5109465;28;20366;-63
2022/03/18 02:57:05;;;;;;;13.18;7.72;;;5.80;99.90;;;;;;5111889;28;20046;-63
2022/03/18 02:59:32;;;;;;;19.73;9.05;;;4.90;99.90;;;;;;5111270;28;20047;-63
2022/03/18 03:01:59;;;;;;;16.27;8.38;;;5.50;99.90;;;;;;5092082;28;20044;-63
2022/03/18 03:04:25;;;;;;;15.23;8.18;;;5.10;99.90;;;;;;5091107;28;20051;-63
2022/03/18 03:09:35;;;;;;;16.60;7.82;;;5.20;99.90;;;;;;5110550;28;20134;-63
2022/03/18 03:12:00;;;;;;;15.98;8.13;;;5.20;99.90;;;;;;5114961;28;20118;-63
2022/03/18 03:14:26;;;;;;;17.02;8.40;;;5.20;99.90;;;;;;5114625;28;20054;-63
2022/03/18 03:16:52;;;;;;;16.10;8.95;;;5.30;99.90;;;;;;5115093;28;20112;-63
2022/03/18 03:19:18;;;;;;;12.60;7.35;;;5.30;99.90;;;;;;5114156;28;20043;-63
2022/03/18 03:21:43;;;;;;;16.20;8.38;;;6.10;99.90;;;;;;5115809;28;20032;-63
2022/03/18 03:24:09;;;;;;;15.55;8.05;;;5.40;99.90;;;;;;5114951;28;20476;-63
2022/03/18 03:26:35;;;;;;;14.88;7.82;;;5.30;99.90;;;;;;5115780;28;20500;-63
2022/03/18 03:29:02;;;;;;;13.13;7.65;;;5.50;99.90;;;;;;5114521;28;20047;-63
2022/03/18 03:31:27;;;;;;;15.48;7.85;;;5.40;99.90;;;;;;5114613;28;20073;-63
2022/03/18 03:33:53;;;;;;;16.45;8.88;;;5.60;99.90;;;;;;5115351;28;20044;-63
2022/03/18 03:36:19;;;;;;;14.13;8.50;;;5.40;99.90;;;;;;5096549;28;20078;-63
2022/03/18 03:38:45;;;;;;;14.02;8.35;;;5.20;99.90;;;;;;5101693;28;20116;-63
2022/03/18 03:41:10;;;;;;;16.50;8.15;;;6.20;99.90;;;;;;5115388;28;20428;-63
2022/03/18 03:43:36;;;;;;;14.02;7.38;;;5.40;99.90;;;;;;5114406;28;20048;-63
2022/03/18 03:46:02;;;;;;;18.25;8.13;;;5.70;99.90;;;;;;5114662;28;20031;-63
2022/03/18 03:48:28;;;;;;;11.60;7.38;;;5.40;99.90;;;;;;5113745;28;20050;-63
2022/03/18 03:50:53;;;;;;;14.60;7.93;;;5.50;99.90;;;;;;5113913;28;20047;-64
2022/03/18 03:53:19;;;;;;;15.57;8.13;;;5.90;99.90;;;;;;5113972;28;20040;-63
2022/03/18 03:55:45;;;;;;;15.73;8.43;;;5.90;99.90;;;;;;5115171;28;20024;-63
2022/03/18 03:58:11;;;;;;;16.52;8.68;;;5.80;99.90;;;;;;5096719;28;20043;-63
2022/03/18 04:00:37;;;;;;;14.35;8.27;;;5.70;99.90;;;;;;5113317;28;20035;-63
2022/03/18 04:03:06;;;;;;;17.02;8.85;;;6.00;99.90;;;;;;5096474;28;20040;-63
2022/03/18 04:05:33;;;;;;;16.00;8.60;;;4.00;99.90;;;;;;5115438;27;20032;-63
2022/03/18 04:07:58;;;;;;;13.38;7.95;;;5.80;99.90;;;;;;5095348;28;20040;-63
2022/03/18 04:10:24;;;;;;;14.63;8.35;;;5.70;99.90;;;;;;5093242;28;20036;-63
2022/03/18 04:12:50;;;;;;;11.82;7.75;;;5.70;99.90;;;;;;5094359;28;20044;-63
2022/03/18 04:15:15;;;;;;;13.75;8.38;;;5.60;99.90;;;;;;5092113;28;20044;-63
2022/03/18 04:17:43;;;;;;;16.27;9.52;;;5.80;99.90;;;;;;5093925;28;20071;-63
2022/03/18 04:20:11;;;;;;;13.85;8.52;;;5.80;99.90;;;;;;5091998;28;20047;-63
2022/03/18 04:22:38;;;;;;;17.10;8.88;;;5.60;99.90;;;;;;5094476;28;20154;-63
2022/03/18 04:25:04;;;;;;;13.02;8.00;;;5.70;99.90;;;;;;5092888;28;20089;-63
2022/03/18 04:27:29;;;;;;;12.50;9.00;;;5.70;99.90;;;;;;5092158;28;20093;-63
2022/03/18 04:29:55;;;;;;;17.13;9.45;;;5.80;99.90;;;;;;5094149;28;20123;-63
2022/03/18 04:32:21;;;;;;;19.40;9.90;;;5.40;99.90;;;;;;5092566;28;20048;-63
2022/03/18 04:34:46;;;;;;;15.07;8.63;;;5.70;99.90;;;;;;5093285;28;20032;-63
2022/03/18 04:37:12;;;;;;;14.23;7.78;;;5.60;99.90;;;;;;5086600;28;20039;-63
2022/03/18 04:39:37;;;;;;;16.45;9.05;;;6.70;99.90;;;;;;5114465;28;20488;-63
2022/03/18 04:42:03;;;;;;;17.02;8.70;;;5.60;99.90;;;;;;5113456;28;20046;-64
2022/03/18 04:44:29;;;;;;;14.95;8.65;;;5.60;99.90;;;;;;5113978;27;20404;-63
2022/03/18 04:46:55;;;;;;;14.60;8.25;;;5.70;99.90;;;;;;5113877;28;20043;-63
2022/03/18 04:49:20;;;;;;;15.65;8.13;;;5.30;99.90;;;;;;5112190;28;20075;-63
2022/03/18 04:51:46;;;;;;;13.25;8.55;;;5.50;99.90;;;;;;5104406;28;20110;-63
2022/03/18 04:54:12;;;;;;;11.57;7.80;;;5.30;99.90;;;;;;5093407;28;20105;-63
2022/03/18 04:59:22;;;;;;;14.18;8.55;;;5.50;99.90;;;;;;5092552;28;20044;-63
2022/03/18 05:01:48;;;;;;;11.95;8.82;;;5.50;99.90;;;;;;5092016;28;20038;-63
2022/03/18 05:04:14;;;;;;;14.18;8.68;;;5.50;99.90;;;;;;5125694;27;20051;-63
2022/03/18 05:06:39;;;;;;;16.00;9.65;;;5.50;99.90;;;;;;5102173;28;20408;-63
2022/03/18 05:09:06;;;;;;;17.20;8.90;;;5.30;99.90;;;;;;5113877;28;20131;-63
2022/03/18 05:11:31;;;;;;;12.95;8.88;;;4.90;99.90;;;;;;5111897;28;20043;-63
2022/03/18 05:13:58;;;;;;;15.35;9.75;;;;;;;;;;5113318;28;20055;-63
2022/03/18 05:16:25;;;;;;;15.10;9.57;;;5.00;99.90;;;;;;5112544;28;20039;-63
2022/03/18 05:18:51;;;;;;;14.32;9.05;;;5.20;99.90;;;;;;5094324;28;20373;-63
2022/03/18 05:21:17;;;;;;;15.93;9.25;;;5.00;99.90;;;;;;5092189;28;20054;-63
2022/03/18 05:23:42;;;;;;;13.00;9.20;;;5.00;99.90;;;;;;5092324;28;20031;-63
2022/03/18 05:26:08;;;;;;;11.95;9.15;;;5.20;99.90;;;;;;5092901;28;20040;-64
2022/03/18 05:28:34;;;;;;;18.27;10.27;;;5.00;99.90;;;;;;5091886;28;20048;-63
2022/03/18 05:31:00;;;;;;;15.60;10.20;;;;;;;;;;5091425;28;20130;-63
2022/03/18 05:33:26;;;;;;;17.00;10.02;;;4.50;99.90;;;;;;5091393;28;20097;-63
2022/03/18 05:35:52;;;;;;;11.75;9.43;;;4.50;99.90;;;;;;5092817;28;20032;-63
2022/03/18 05:38:17;;;;;;;18.25;10.75;;;4.40;99.90;;;;;;5074094;28;20047;-63
2022/03/18 05:40:43;;;;;;;16.17;10.10;;;4.60;99.90;;;;;;5091305;28;20032;-63
2022/03/18 05:43:09;;;;;;;16.52;10.63;;;4.10;99.90;;;;;;5091351;28;20036;-63
2022/03/18 05:45:34;;;;;;;15.05;9.70;;;4.90;99.90;;;;;;5073892;28;20054;-63
2022/03/18 05:48:01;;;;;;;14.48;10.10;;;;;;;;;;5100311;28;20479;-63
2022/03/18 05:50:26;;;;;;;15.45;10.60;;;4.50;99.90;;;;;;5112619;28;20039;-63
2022/03/18 05:52:52;;;;;;;13.52;9.45;;;4.10;99.90;;;;;;5110248;28;20055;-63
2022/03/18 05:55:18;;;;;;;13.18;9.43;;;4.20;99.90;;;;;;5112573;28;20499;-64
2022/03/18 05:57:44;;;;;;;17.38;10.90;;;5.50;99.90;;;;;;5112845;28;20035;-63
2022/03/18 06:00:12;;;;;;;15.02;11.00;;;4.20;99.90;;;;;;5112108;28;20039;-63
2022/03/18 06:02:38;;;;;;;14.18;11.48;;;4.20;99.90;;;;;;5104594;28;20102;-64
2022/03/18 06:05:04;;;;;;;12.48;10.20;;;4.20;99.90;;;;;;5100266;28;20055;-63
2022/03/18 06:07:29;;;;;;;17.98;12.07;;;4.00;99.90;;;;;;5076340;28;20044;-64
2022/03/18 06:12:39;;;;;;;19.67;13.93;;;3.90;99.90;;;;;;5112266;28;20046;-63
2022/03/18 06:15:05;;;;;;;17.60;12.27;;;4.00;99.90;;;;;;5112798;28;20402;-63
2022/03/18 06:17:31;;;;;;;19.05;12.50;;;4.40;99.90;;;;;;5112940;28;20081;-63
2022/03/18 06:19:56;;;;;;;21.00;12.48;;;4.20;99.90;;;;;;5110902;28;20547;-63
2022/03/18 06:22:22;;;;;;;18.40;13.07;;;4.20;99.90;;;;;;5105493;28;20024;-64
2022/03/18 06:24:48;;;;;;;20.55;11.57;;;4.30;99.90;;;;;;5091081;28;20039;-64
2022/03/18 06:27:14;;;;;;;18.45;11.35;;;4.30;99.90;;;;;;5090419;28;20518;-63
2022/03/18 06:29:43;;;;;;;18.08;11.90;;;4.00;99.90;;;;;;5094160;28;20040;-64
2022/03/18 06:32:09;;;;;;;22.40;11.95;;;4.30;99.90;;;;;;5112313;28;20035;-64
2022/03/18 06:34:34;;;;;;;19.17;12.93;;;4.30;99.90;;;;;;5111805;28;20434;-63
2022/03/18 06:37:00;;;;;;;19.52;12.82;;;4.40;99.90;;;;;;5111140;28;20069;-64
2022/03/18 06:39:26;;;;;;;15.35;11.23;;;4.60;99.90;;;;;;5097743;28;20040;-63
2022/03/18 06:41:52;;;;;;;22.67;13.05;;;4.40;99.90;;;;;;5090466;28;20089;-64
2022/03/18 06:44:18;;;;;;;16.50;10.98;;;4.70;99.90;;;;;;5096389;28;20048;-64
2022/03/18 06:46:44;;;;;;;17.65;11.85;;;;;;;;;;5116478;27;20079;-63
2022/03/18 06:49:11;;;;;;;16.13;12.30;;;4.30;99.90;;;;;;5115665;28;20082;-64
2022/03/18 06:51:37;;;;;;;17.05;12.32;;;4.90;99.90;;;;;;5115260;28;20066;-63
2022/03/18 06:54:03;;;;;;;23.35;13.85;;;4.40;99.90;;;;;;5116019;28;20044;-63
2022/03/18 06:56:30;;;;;;;18.55;12.63;;;4.60;99.90;;;;;;5114059;28;20110;-64
2022/03/18 06:58:56;;;;;;;18.83;12.52;;;5.10;99.90;;;;;;5109470;28;20047;-64
2022/03/18 07:01:22;;;;;;;17.10;12.55;;;5.30;99.90;;;;;;5099055;28;20067;-63
2022/03/18 07:03:48;;;;;;;24.13;14.85;;;5.20;99.90;;;;;;5107820;28;20075;-63
2022/03/18 07:06:14;;;;;;;17.65;12.48;;;5.00;99.90;;;;;;5111082;28;20511;-63
2022/03/18 07:08:40;;;;;;;19.10;13.25;;;5.30;99.90;;;;;;5096347;28;20063;-64
2022/03/18 07:11:06;;;;;;;23.85;12.60;;;5.20;99.90;;;;;;5107996;28;20031;-64
2022/03/18 07:13:32;;;;;;;17.40;13.15;;;5.30;99.90;;;;;;5110769;28;20039;-64
2022/03/18 07:17:55;;;;;;;21.40;12.70;;;5.50;99.90;;;;;;5092647;28;20523;-64
2022/03/18 07:18:45;;;;;;;18.92;13.80;;;5.70;99.90;;;;;;5091605;28;20468;-64
2022/03/18 07:21:11;;;;;;;23.02;12.98;;;;;;;;;;5092933;28;20040;-64
2022/03/18 07:23:37;;;;;;;24.58;13.10;;;;;;;;;;5092521;28;20044;-64
2022/03/18 07:26:03;;;;;;;21.63;13.30;;;;;;;;;;5093260;28;20044;-63
2022/03/18 07:28:29;;;;;;;23.65;12.93;;;;;;;;;;5093122;28;20047;-63
2022/03/18 07:30:55;;;;;;;17.02;12.60;;;;;;;;;;5095119;28;20086;-64
2022/03/18 07:33:21;;;;;;;22.27;13.43;;;6.10;99.90;;;;;;5103627;28;20105;-64
2022/03/18 07:35:47;;;;;;;23.63;12.43;;;;;;;;;;5111417;28;20072;-63
2022/03/18 07:38:13;;;;;;;19.73;11.32;;;;;;;;;;5105778;28;20032;-64
2022/03/18 07:40:40;;;;;;;27.20;12.88;;;;;;;;;;5102752;28;20078;-63
2022/03/18 07:43:07;;;;;;;20.80;11.38;;;6.90;99.90;;;;;;5091468;28;20043;-63
2022/03/18 07:45:33;;;;;;;19.33;11.65;;;;;;;;;;5091900;28;20062;-64
2022/03/18 07:48:02;;;;;;;19.35;11.20;;;7.00;99.90;;;;;;5095405;28;20051;-63
2022/03/18 07:50:29;;;;;;;23.90;11.18;;;7.10;99.90;;;;;;5094663;28;20043;-64
2022/03/18 07:53:00;;;;;;;21.27;11.48;;;7.40;99.90;;;;;;5110593;28;20060;-64
2022/03/18 07:55:29;;;;;;;21.45;10.38;;;7.50;99.90;;;;;;5086847;28;20051;-64
2022/03/18 07:57:55;;;;;;;20.98;10.48;;;;;;;;;;5097622;28;20465;-64
2022/03/18 08:00:21;;;;;;;27.90;10.23;;;;;;;;;;5102428;28;20032;-64
2022/03/18 08:02:51;;;;;;;23.25;10.77;;;;;;;;;;5112356;28;20131;-64
2022/03/18 08:05:17;;;;;;;19.85;9.55;;;7.90;99.90;;;;;;5109706;28;20084;-64
2022/03/18 08:07:46;;;;;;;18.48;10.73;;;7.80;99.90;;;;;;5093894;28;20050;-64
2022/03/18 08:10:14;;;;;;;21.80;9.70;;;7.80;99.90;;;;;;5091033;28;20126;-64
2022/03/18 08:12:41;;;;;;;23.75;9.50;;;8.00;99.90;;;;;;5091856;28;20062;-64
2022/03/18 08:15:09;;;;;;;21.02;9.63;;;7.90;99.90;;;;;;5101289;28;20050;-64
2022/03/18 08:17:40;;;;;;;25.17;14.30;;;8.30;99.90;;;;;;5096715;28;20040;-63
2022/03/18 08:20:11;;;;;;;23.33;12.93;;;8.40;99.90;;;;;;5093630;28;20044;-64
2022/03/18 08:22:38;;;;;;;18.55;9.10;;;8.40;99.90;;;;;;5095642;28;20032;-63
2022/03/18 08:25:08;;;;;;;18.80;8.55;;;8.70;99.90;;;;;;5101678;28;20507;-64
2022/03/18 08:27:34;;;;;;;21.42;8.70;;;8.50;99.90;;;;;;5100883;28;20036;-63
2022/03/18 08:30:00;;;;;;;15.40;7.85;;;8.70;99.90;;;;;;5089675;28;20463;-64
2022/03/18 08:32:27;;;;;;;16.83;8.75;;;8.60;99.90;;;;;;5102167;28;20066;-64
2022/03/18 08:34:54;;;;;;;20.75;8.85;;;8.70;99.90;;;;;;5099611;28;20063;-63
2022/03/18 08:37:56;;;;;;;19.48;7.00;;;9.00;99.90;;;;;;5106182;28;20499;-63
2022/03/18 08:40:07;;;;;;;12.77;6.28;;;9.00;99.90;;;;;;5112433;27;20065;-63
2022/03/18 08:42:32;;;;;;;20.63;7.43;;;9.10;99.90;;;;;;5089810;28;20040;-63
2022/03/18 08:44:58;;;;;;;17.23;6.88;;;9.20;99.90;;;;;;5090214;28;20040;-63
2022/03/18 08:47:24;;;;;;;21.80;7.63;;;9.30;99.90;;;;;;5093012;28;20507;-63
2022/03/18 08:49:50;;;;;;;25.08;7.35;;;9.40;99.90;;;;;;5091374;28;20092;-63
2022/03/18 08:52:16;;;;;;;21.25;7.32;;;9.50;99.90;;;;;;5109138;28;20059;-64
2022/03/18 08:54:42;;;;;;;15.77;6.43;;;;;;;;;;5104268;27;20692;-63
2022/03/18 08:57:08;;;;;;;12.30;6.45;;;9.60;99.90;;;;;;5109698;28;20043;-64
2022/03/18 08:59:34;;;;;;;21.65;6.95;;;9.30;99.90;;;;;;5110736;28;20380;-64
2022/03/18 09:01:59;;;;;;;16.58;7.10;;;9.50;99.90;;;;;;5110338;28;20040;-63
2022/03/18 09:04:31;;;;;;;26.40;7.22;;;9.70;99.90;;;;;;5105839;28;20040;-63
2022/03/18 09:06:57;;;;;;;23.85;7.10;;;9.70;99.90;;;;;;5090935;28;20040;-63
2022/03/18 09:09:23;;;;;;;19.50;6.70;;;9.50;99.90;;;;;;5092103;28;20396;-64
2022/03/18 09:11:48;;;;;;;17.40;5.97;;;9.60;99.90;;;;;;5101161;28;20047;-63
2022/03/18 09:14:14;;;;;;;19.48;7.28;;;10.10;99.90;;;;;;5090555;28;20133;-63
2022/03/18 09:16:40;;;;;;;16.58;5.82;;;10.20;99.90;;;;;;5122676;27;20036;-63
2022/03/18 09:19:06;;;;;;;20.65;8.10;;;9.90;99.90;;;;;;5104343;28;20127;-63
2022/03/18 09:21:32;;;;;;;13.98;5.90;;;9.90;99.90;;;;;;5121445;27;20085;-63
2022/03/18 09:23:58;;;;;;;17.33;5.75;;;9.80;99.90;;;;;;5095828;28;20051;-64
2022/03/18 09:26:24;;;;;;;20.65;6.10;;;10.30;99.90;;;;;;5100281;28;20144;-63
2022/03/18 09:28:50;;;;;;;18.35;5.65;;;10.30;99.90;;;;;;5090948;28;20043;-63
2022/03/18 09:31:16;;;;;;;21.35;6.50;;;10.40;99.90;;;;;;5093128;28;20058;-63
2022/03/18 09:33:42;;;;;;;23.08;8.23;;;12.40;99.90;;;;;;5110433;28;20396;-64
2022/03/18 09:36:10;;;;;;;16.63;6.15;;;11.80;99.90;;;;;;5100543;28;20035;-63
2022/03/18 09:38:38;;;;;;;14.20;5.13;;;10.40;99.90;;;;;;5106017;28;20031;-64
2022/03/18 09:41:06;;;;;;;22.52;6.85;;;10.40;99.90;;;;;;5090588;28;20481;-63
2022/03/18 09:43:37;;;;;;;15.73;6.05;;;10.70;99.90;;;;;;5091178;28;20040;-64
2022/03/18 09:46:08;;;;;;;15.00;5.65;;;11.30;99.90;;;;;;5087222;28;20055;-64
2022/03/18 09:48:35;;;;;;;15.32;5.20;;;12.00;99.90;;;;;;5107700;28;20540;-63
2022/03/18 09:51:00;;;;;;;19.13;6.35;;;11.10;99.90;;;;;;5091592;28;20059;-64
2022/03/18 09:53:26;;;;;;;19.25;5.95;;;11.10;99.90;;;;;;5091414;28;20093;-63
2022/03/18 09:55:52;;;;;;;17.98;5.90;;;10.90;99.90;;;;;;5089977;28;20039;-63
2022/03/18 09:58:19;;;;;;;13.82;5.05;;;;;;;;;;5105333;28;20055;-64
2022/03/18 10:00:46;;;;;;;16.30;5.80;;;;;;;;;;5094838;28;20370;-63
2022/03/18 10:03:22;;;;;;;14.80;6.22;;;;;;;;;;5107504;28;20035;-63
2022/03/18 10:06:00;;;;;;;20.52;7.05;;;;;;;;;;5088278;28;20031;-63
2022/03/18 10:08:46;;;;;;;13.90;6.00;;;;;;;;;;5099196;28;20032;-63
2022/03/18 10:11:14;;;;;;;18.17;6.40;;;11.10;99.90;;;;;;5083112;28;20046;-63
2022/03/18 10:13:50;;;;;;;22.27;6.80;;;11.20;99.90;;;;;;5095189;28;20043;-63
2022/03/18 10:16:33;;;;;;;14.18;5.05;;;11.50;99.90;;;;;;5107001;28;20074;-63
2022/03/18 10:19:03;;;;;;;22.45;5.88;;;11.50;99.90;;;;;;5106570;28;20046;-63
2022/03/18 10:21:29;;;;;;;15.35;6.05;;;11.40;99.90;;;;;;5108264;28;20044;-63
2022/03/18 10:24:06;;;;;;;14.82;5.60;;;12.30;99.90;;;;;;5099732;28;20060;-63
2022/03/18 10:26:35;;;;;;;20.63;6.05;;;11.40;99.90;;;;;;5090362;28;20442;-63
2022/03/18 10:29:00;;;;;;;19.23;6.53;;;12.20;99.90;;;;;;5093320;28;20043;-63
2022/03/18 10:31:26;;;;;;;16.33;5.40;;;12.20;99.90;;;;;;5089589;28;20059;-63
2022/03/18 10:39:26;;;;;;;;;;;11.80;99.90;;;;;;5105752;28;20085;-63
2022/03/18 10:41:53;;;;;;;16.58;5.80;;;11.90;99.90;;;;;;5108647;28;19969;-62
2022/03/18 10:44:19;;;;;;;15.82;5.80;;;11.70;99.90;;;;;;5090226;28;20067;-62
2022/03/18 10:46:47;;;;;;;19.63;5.95;;;12.10;99.90;;;;;;5093253;28;20028;-62
2022/03/18 10:49:13;;;;;;;14.30;5.90;;;11.90;99.90;;;;;;5099538;28;20122;-62
2022/03/18 10:51:38;;;;;;;16.42;5.55;;;11.80;99.90;;;;;;5089804;28;20572;-62
2022/03/18 10:54:05;;;;;;;12.32;4.82;;;12.50;99.90;;;;;;5092112;28;20392;-62
2022/03/18 10:56:52;;;;;;;15.50;5.00;;;12.10;99.90;;;;;;5106824;28;20046;-63
2022/03/18 10:59:18;;;;;;;18.52;6.25;;;12.50;99.90;;;;;;5089383;28;20040;-62
2022/03/18 11:01:47;;;;;;;14.50;6.03;;;;;;;;;;5091226;28;20419;-63
2022/03/18 11:04:16;;;;;;;16.83;5.20;;;;;;;;;;5102777;28;20089;-63
2022/03/18 11:07:29;;;;;;;21.20;7.07;;;;;;;;;;5092405;28;20145;-65
2022/03/18 11:11:07;;;;;;;11.38;4.85;;;;;;;;;;5091058;28;20129;-64
2022/03/18 11:12:24;;;;;;;17.13;6.03;;;;;;;;;;5093087;28;20419;-65
2022/03/18 11:14:54;;;;;;;14.52;5.13;;;13.00;99.90;;;;;;5093881;28;20072;-63
2022/03/18 11:17:21;;;;;;;17.33;4.90;;;;;;;;;;5106168;28;20499;-64
2022/03/18 11:19:47;;;;;;;18.48;5.25;;;12.40;99.90;;;;;;5090209;28;20551;-63
2022/03/18 11:22:17;;;;;;;16.88;5.05;;;12.10;99.90;;;;;;5092023;28;20115;-65
2022/03/18 11:24:45;;;;;;;19.63;5.38;;;12.30;99.90;;;;;;5106013;28;20063;-65
2022/03/18 11:27:12;;;;;;;13.13;4.70;;;12.50;99.90;;;;;;5124479;28;20055;-64
2022/03/18 11:29:39;;;;;;;16.25;5.25;;;12.80;99.90;;;;;;5097531;28;20047;-64
2022/03/18 11:32:12;;;;;;;15.35;4.97;;;12.40;99.90;;;;;;5113976;28;20105;-64
2022/03/18 11:35:06;;;;;;;16.95;4.53;;;12.30;99.90;;;;;;5099756;28;20064;-63
2022/03/18 11:37:33;;;;;;;20.00;5.53;;;12.60;99.90;;;;;;5093216;28;20076;-67
2022/03/18 11:40:33;;;;;;;18.05;5.00;;;12.70;99.90;;;;;;5095309;28;20114;-67
2022/03/18 11:43:28;;;;;;;16.42;5.32;;;12.70;99.90;;;;;;5080998;28;20063;-67
2022/03/18 11:46:16;;;;;;;16.83;4.15;;;12.60;99.90;;;;;;5106751;28;20097;-68
2022/03/18 11:48:43;;;;;;;13.82;4.25;;;12.50;99.90;;;;;;5077615;28;20070;-67
2022/03/18 11:51:40;;;;;;;17.13;5.05;;;12.80;99.90;;;;;;5097114;28;20123;-64
2022/03/18 11:54:07;;;;;;;13.88;4.20;;;;;;;;;;5103806;28;20052;-66
2022/03/18 11:56:39;;;;;;;14.32;5.13;;;12.90;99.90;;;;;;5115010;28;20088;-67
2022/03/18 11:59:31;;;;;;;12.35;4.05;;;13.40;99.90;;;;;;5114485;28;20476;-67
2022/03/18 12:02:12;;;;;;;12.82;5.47;;;12.50;99.90;;;;;;5114821;28;20392;-67
2022/03/18 12:04:44;;;;;;;14.15;4.20;;;12.80;99.90;;;;;;5112797;28;20047;-66
2022/03/18 12:07:19;;;;;;;13.02;4.28;;;12.70;99.90;;;;;;5115006;28;20043;-67
2022/03/18 12:09:55;;;;;;;15.05;4.30;;;13.20;99.90;;;;;;5114838;28;20057;-67
2022/03/18 12:12:45;;;;;;;17.67;4.82;;;13.00;99.90;;;;;;5112586;28;20050;-67
2022/03/18 12:15:15;;;;;;;16.63;3.80;;;12.70;99.90;;;;;;5113326;28;20128;-67
2022/03/18 12:17:52;;;;;;;16.25;4.00;;;13.10;99.90;;;;;;5114870;28;20089;-67
2022/03/18 12:20:23;;;;;;;13.60;3.78;;;13.10;99.90;;;;;;5113778;28;20043;-67
2022/03/18 12:22:51;;;;;;;17.25;4.97;;;12.80;99.90;;;;;;5113283;28;20047;-67
2022/03/18 12:25:17;;;;;;;16.98;4.30;;;;;;;;;;5113841;28;20399;-67
2022/03/18 12:27:44;;;;;;;16.27;4.93;;;13.50;99.90;;;;;;5113354;28;20054;-66
2022/03/18 12:30:18;;;;;;;12.45;4.35;;;13.10;99.90;;;;;;5113289;28;20396;-66
2022/03/18 12:32:53;;;;;;;14.10;4.10;;;12.90;99.90;;;;;;5113672;28;20400;-67
2022/03/18 12:35:50;;;;;;;18.38;4.90;;;13.00;99.90;;;;;;5112912;28;20304;-67
2022/03/18 12:38:18;;;;;;;17.70;3.70;;;13.00;99.90;;;;;;5112042;28;20044;-67
2022/03/18 12:40:56;;;;;;;15.23;4.03;;;13.20;99.90;;;;;;5113014;28;20136;-66
2022/03/18 12:43:24;;;;;;;18.20;5.10;;;12.90;99.90;;;;;;5095756;28;20420;-66
2022/03/18 12:45:50;;;;;;;22.17;4.15;;;13.40;99.90;;;;;;5113975;28;20031;-67
2022/03/18 12:48:18;;;;;;;13.18;4.05;;;13.10;99.90;;;;;;5113222;28;20122;-67
2022/03/18 12:50:49;;;;;;;19.67;4.82;;;12.90;99.90;;;;;;5114028;28;20429;-67
2022/03/18 12:53:20;;;;;;;13.13;3.65;;;12.80;99.90;;;;;;5113724;28;20514;-67
2022/03/18 12:55:51;;;;;;;14.98;4.50;;;13.10;99.90;;;;;;5111939;28;20118;-67
2022/03/18 12:58:18;;;;;;;16.40;3.92;;;13.00;99.90;;;;;;5113820;28;20046;-67
2022/03/18 13:00:55;;;;;;;15.50;4.22;;;13.10;99.90;;;;;;5111556;28;20044;-66
2022/03/18 13:03:27;;;;;;;11.55;3.83;;;12.80;99.90;;;;;;5113903;28;20124;-66
2022/03/18 13:06:07;;;;;;;15.20;3.60;;;13.30;99.90;;;;;;5112437;28;20115;-67
2022/03/18 13:08:34;;;;;;;14.02;3.75;;;13.10;99.90;;;;;;5111795;28;20039;-66
2022/03/18 13:11:02;;;;;;;16.85;4.00;;;13.00;99.90;;;;;;5112181;28;20047;-66
2022/03/18 13:13:29;;;;;;;18.02;4.95;;;13.00;99.90;;;;;;5113573;28;20031;-66